createdAt,value
2022-12-04T00:00:48.833Z,100380.41
2022-12-04T00:05:51.800Z,100378.75
2022-12-04T00:10:55.991Z,100376.25
2022-12-04T00:15:59.284Z,100376.50
2022-12-04T00:21:33.018Z,100380.16
2022-12-04T00:26:37.261Z,100386.41
2022-12-04T00:31:41.487Z,100392.88
2022-12-04T00:36:44.962Z,100389.44
2022-12-04T00:41:49.250Z,100395.78
2022-12-04T00:46:52.058Z,100386.94
2022-12-04T00:51:54.854Z,100378.97
2022-12-04T00:56:58.965Z,100381.78
2022-12-04T01:02:01.810Z,100371.00
2022-12-04T01:07:05.405Z,100368.28
2022-12-04T01:12:09.706Z,100358.38
2022-12-04T01:17:12.544Z,100360.22
2022-12-04T01:22:15.989Z,100353.97
2022-12-04T01:27:20.291Z,100345.03
2022-12-04T01:32:23.258Z,100334.25
2022-12-04T01:37:26.186Z,100330.66
2022-12-04T01:42:30.441Z,100331.63
2022-12-04T01:47:33.728Z,100328.94
2022-12-04T01:52:36.647Z,100326.38
2022-12-04T01:57:40.814Z,100326.38
2022-12-04T02:02:48.120Z,100326.38
2022-12-04T02:07:54.385Z,100329.16
2022-12-04T02:13:06.749Z,100335.41
2022-12-04T02:18:17.316Z,100327.66
2022-12-04T02:23:53.332Z,100322.25
2022-12-04T02:29:03.807Z,100329.59
2022-12-04T02:34:13.277Z,100324.09
2022-12-04T02:39:23.085Z,100322.38
2022-12-04T02:44:30.759Z,100316.22
2022-12-04T02:49:38.929Z,100305.56
2022-12-04T02:54:46.912Z,100298.34
2022-12-04T02:59:53.893Z,100306.41
2022-12-04T03:04:59.996Z,100300.91
2022-12-04T03:10:10.913Z,100302.88
2022-12-04T03:15:18.849Z,100309.34
2022-12-04T03:20:23.124Z,100312.03
2022-12-04T03:25:34.009Z,100306.41
2022-12-04T03:30:43.001Z,100301.69
2022-12-04T03:35:50.909Z,100305.03
2022-12-04T03:41:02.513Z,100310.09
2022-12-04T03:46:12.698Z,100318.06
2022-12-04T03:51:19.542Z,100318.19
2022-12-04T03:56:25.583Z,100325.28
2022-12-04T04:01:35.966Z,100330.25
2022-12-04T04:06:43.161Z,100321.19
2022-12-04T04:11:51.024Z,100326.41
2022-12-04T04:17:18.004Z,100327.34
2022-12-04T04:22:41.026Z,100314.31
2022-12-04T04:27:44.241Z,100310.41
2022-12-04T04:32:57.998Z,100305.88
2022-12-04T04:38:14.413Z,100312.78
2022-12-04T04:43:22.884Z,100323.22
2022-12-04T04:48:32.988Z,100309.88
2022-12-04T04:53:41.683Z,100306.72
2022-12-04T04:58:45.005Z,100301.09
2022-12-04T05:03:49.493Z,100300.88
2022-12-04T05:08:52.278Z,100314.25
2022-12-04T05:13:55.120Z,100306.88
2022-12-04T05:19:17.006Z,100302.38
2022-12-04T05:24:19.889Z,100298.38
2022-12-04T05:29:22.709Z,100300.19
2022-12-04T05:34:26.932Z,100291.03
2022-12-04T05:39:29.843Z,100299.00
2022-12-04T05:44:32.737Z,100299.66
2022-12-04T05:49:37.283Z,100288.84
2022-12-04T05:54:40.279Z,100293.06
2022-12-04T05:59:43.241Z,100271.22
2022-12-04T06:04:47.402Z,100270.25
2022-12-04T06:09:50.115Z,100266.56
2022-12-04T06:14:53.085Z,100269.50
2022-12-04T06:19:57.727Z,100262.91
2022-12-04T06:25:00.903Z,100253.84
2022-12-04T06:30:04.115Z,100253.97
2022-12-04T06:35:09.458Z,100263.66
2022-12-04T06:40:12.700Z,100278.97
2022-12-04T06:45:15.529Z,100282.41
2022-12-04T06:50:19.939Z,100288.16
2022-12-04T06:55:22.853Z,100290.50
2022-12-04T07:00:25.665Z,100289.53
2022-12-04T07:05:29.860Z,100299.72
2022-12-04T07:10:32.709Z,100302.28
2022-12-04T07:15:36.428Z,100315.25
2022-12-04T07:20:42.457Z,100312.66
2022-12-04T07:25:45.333Z,100309.00
2022-12-04T07:30:48.116Z,100309.13
2022-12-04T07:35:57.678Z,100309.25
2022-12-04T07:41:01.459Z,100315.06
2022-12-04T07:46:07.385Z,100310.19
2022-12-04T07:51:13.330Z,100309.25
2022-12-04T07:56:16.778Z,100305.66
2022-12-04T08:01:21.173Z,100297.69
2022-12-04T08:06:26.771Z,100306.88
2022-12-04T08:16:33.600Z,100320.66
2022-12-04T08:21:37.875Z,100326.25
2022-12-04T08:26:40.664Z,100336.06
2022-12-04T08:31:43.497Z,100319.06
2022-12-04T08:36:47.699Z,100326.41
2022-12-04T08:41:56.669Z,100317.81
2022-12-04T08:46:59.939Z,100309.44
2022-12-04T08:52:04.223Z,100297.81
2022-12-04T08:57:07.383Z,100305.56
2022-12-04T09:02:11.434Z,100300.22
2022-12-04T09:07:15.534Z,100317.34
2022-12-04T09:12:19.039Z,100313.88
2022-12-04T09:17:22.004Z,100305.56
2022-12-04T09:22:26.244Z,100302.47
2022-12-04T09:27:29.201Z,100299.25
2022-12-04T09:32:31.966Z,100297.22
2022-12-04T09:37:37.592Z,100294.88
2022-12-04T09:42:46.917Z,100295.22
2022-12-04T09:47:53.196Z,100293.72
2022-12-04T09:53:01.562Z,100288.22
2022-12-04T09:58:07.693Z,100283.13
2022-12-04T10:03:15.715Z,100265.19
2022-12-04T10:08:23.760Z,100266.63
2022-12-04T10:13:52.207Z,100281.09
2022-12-04T10:19:04.192Z,100280.41
2022-12-04T10:24:23.564Z,100270.47
2022-12-04T10:29:31.570Z,100270.09
2022-12-04T10:34:34.477Z,100257.41
2022-12-04T10:39:45.587Z,100269.09
2022-12-04T10:44:48.482Z,100255.22
2022-12-04T10:50:00.011Z,100265.69
2022-12-04T10:55:04.316Z,100259.84
2022-12-04T11:00:25.625Z,100254.81
2022-12-04T11:05:32.864Z,100265.09
2022-12-04T11:10:40.587Z,100260.03
2022-12-04T11:15:45.615Z,100259.31
2022-12-04T11:20:54.575Z,100254.13
2022-12-04T11:26:05.936Z,100263.81
2022-12-04T11:31:11.382Z,100270.38
2022-12-04T11:36:22.634Z,100234.66
2022-12-04T11:41:28.855Z,100239.53
2022-12-04T11:46:34.043Z,100249.75
2022-12-04T11:51:51.323Z,100245.00
2022-12-04T11:57:07.904Z,100244.88
2022-12-04T12:02:31.991Z,100229.16
2022-12-04T12:07:44.029Z,100222.91
2022-12-04T12:13:02.432Z,100209.50
2022-12-04T12:18:22.813Z,100209.97
2022-12-04T12:23:46.822Z,100201.84
2022-12-04T12:29:11.545Z,100202.28
2022-12-04T12:34:21.405Z,100195.72
2022-12-04T12:39:27.472Z,100194.88
2022-12-04T12:44:37.973Z,100177.53
2022-12-04T12:49:48.866Z,100172.38
2022-12-04T12:54:57.305Z,100159.63
2022-12-04T13:00:07.357Z,100151.78
2022-12-04T13:05:12.536Z,100151.66
2022-12-04T13:10:20.201Z,100158.56
2022-12-04T13:15:30.809Z,100158.34
2022-12-04T13:20:43.972Z,100147.09
2022-12-04T13:25:58.254Z,100133.91
2022-12-04T13:31:14.272Z,100127.28
2022-12-04T13:36:30.641Z,100122.34
2022-12-04T13:41:39.309Z,100135.94
2022-12-04T13:46:53.520Z,100138.47
2022-12-04T13:51:57.948Z,100120.97
2022-12-04T13:57:19.768Z,100135.38
2022-12-04T14:02:29.760Z,100143.38
2022-12-04T14:07:35.555Z,100140.94
2022-12-04T14:12:41.899Z,100146.69
2022-12-04T14:17:59.199Z,100133.16
2022-12-04T14:23:11.119Z,100130.13
2022-12-04T14:28:24.252Z,100144.84
2022-12-04T14:33:30.816Z,100136.50
2022-12-04T14:38:34.201Z,100142.59
2022-12-04T14:43:40.553Z,100154.09
2022-12-04T14:48:53.984Z,100159.13
2022-12-04T14:54:08.418Z,100153.25
2022-12-04T14:59:18.401Z,100160.31
2022-12-04T15:04:27.109Z,100150.84
2022-12-04T15:09:47.744Z,100143.72
2022-12-04T15:14:51.191Z,100134.28
2022-12-04T15:19:55.319Z,100125.94
2022-12-04T15:24:58.741Z,100133.66
2022-12-04T15:30:03.837Z,100126.78
2022-12-04T15:35:14.078Z,100128.00
2022-12-04T15:40:22.265Z,100116.25
2022-12-04T15:45:34.290Z,100119.66
2022-12-04T15:50:38.409Z,100105.78
2022-12-04T15:55:51.796Z,100105.22
2022-12-04T16:00:57.354Z,100100.81
2022-12-04T16:06:20.489Z,100103.81
2022-12-04T16:11:35.836Z,100102.22
2022-12-04T16:16:42.117Z,100107.84
2022-12-04T16:21:46.988Z,100103.88
2022-12-04T16:26:51.370Z,100090.03
2022-12-04T16:31:58.243Z,100096.81
2022-12-04T16:37:13.272Z,100098.69
2022-12-04T16:42:18.771Z,100100.41
2022-12-04T16:47:22.339Z,100090.34
2022-12-04T16:52:26.644Z,100101.88
2022-12-04T16:57:29.526Z,100097.22
2022-12-04T17:02:32.651Z,100098.69
2022-12-04T17:07:36.903Z,100101.50
2022-12-04T17:12:39.837Z,100105.41
2022-12-04T17:17:42.704Z,100097.31
2022-12-04T17:22:46.847Z,100100.13
2022-12-04T17:27:49.636Z,100092.59
2022-12-04T17:32:52.917Z,100093.84
2022-12-04T17:38:02.090Z,100099.72
2022-12-04T17:43:08.382Z,100097.09
2022-12-04T17:48:11.138Z,100087.28
2022-12-04T17:53:15.718Z,100080.06
2022-12-04T17:58:18.615Z,100073.47
2022-12-04T18:03:21.486Z,100076.28
2022-12-04T18:08:28.833Z,100067.91
2022-12-04T18:13:31.917Z,100075.78
2022-12-04T18:18:35.377Z,100072.72
2022-12-04T18:23:45.132Z,100080.94
2022-12-04T18:28:48.825Z,100080.56
2022-12-04T18:33:52.188Z,100086.47
2022-12-04T18:38:58.094Z,100086.13
2022-12-04T18:44:00.918Z,100083.63
2022-12-04T18:49:04.358Z,100076.94
2022-12-04T18:54:11.754Z,100078.78
2022-12-04T18:59:16.478Z,100085.19
2022-12-04T19:04:21.992Z,100080.91
2022-12-04T19:10:02.489Z,100085.16
2022-12-04T19:14:52.501Z,100082.09
2022-12-04T19:19:55.709Z,100086.28
2022-12-04T19:25:00.098Z,100086.88
2022-12-04T19:30:02.937Z,100085.16
2022-12-04T19:35:06.195Z,100084.41
2022-12-04T19:40:11.696Z,100083.53
2022-12-04T19:45:14.897Z,100098.75
2022-12-04T19:50:17.889Z,100094.06
2022-12-04T19:55:22.134Z,100101.56
2022-12-04T20:00:25.077Z,100097.56
2022-12-04T20:05:28.028Z,100101.22
2022-12-04T20:10:33.102Z,100097.75
2022-12-04T20:15:36.611Z,100093.03
2022-12-04T20:20:41.125Z,100094.56
2022-12-04T20:25:45.485Z,100084.28
2022-12-04T20:30:49.805Z,100077.22
2022-12-04T20:35:52.740Z,100074.09
2022-12-04T20:40:56.844Z,100064.50
2022-12-04T20:46:00.053Z,100057.28
2022-12-04T20:51:02.920Z,100058.00
2022-12-04T20:56:08.215Z,100063.78
2022-12-04T21:01:13.439Z,100059.47
2022-12-04T21:06:19.694Z,100058.97
2022-12-04T21:11:25.228Z,100065.59
2022-12-04T21:16:28.179Z,100059.25
2022-12-04T21:21:31.064Z,100041.56
2022-12-04T21:26:35.729Z,100039.09
2022-12-04T21:31:39.339Z,100050.63
2022-12-04T21:36:42.632Z,100047.19
2022-12-04T21:42:04.513Z,100042.56
2022-12-04T21:47:07.333Z,100051.25
2022-12-04T21:52:10.237Z,100049.41
2022-12-04T21:57:14.458Z,100049.53
2022-12-04T22:02:17.401Z,100047.69
2022-12-04T22:07:20.244Z,100039.34
2022-12-04T22:12:48.639Z,100041.78
2022-12-04T22:17:47.176Z,100052.34
2022-12-04T22:22:50.159Z,100039.19
2022-12-04T22:27:55.200Z,100035.25
2022-12-04T22:32:58.251Z,100039.91
2022-12-04T22:38:01.121Z,100031.81
2022-12-04T22:43:05.559Z,100045.53
2022-12-04T22:48:08.362Z,100044.19
2022-12-04T22:53:11.273Z,100052.28
2022-12-04T22:58:15.577Z,100044.19
2022-12-04T23:03:18.427Z,100043.31
2022-12-04T23:08:21.310Z,100038.66
2022-12-04T23:13:25.468Z,100040.97
2022-12-04T23:18:28.572Z,100032.53
2022-12-04T23:23:31.561Z,100034.59
2022-12-04T23:28:36.388Z,100020.53
2022-12-04T23:33:39.882Z,100022.31
2022-12-04T23:38:44.415Z,100015.69
2022-12-04T23:43:49.608Z,100011.06
2022-12-04T23:48:52.542Z,100012.28
2022-12-04T23:53:55.882Z,100020.88
2022-12-04T23:59:00.038Z,100021.09
